Halltown, WV (25423)

3:22 AM EDT on March 29, 2015 (GMT -0400)
Gap View Village | | Change Station
CLOSE
Current Station
Personal Weather Station
Location: Harpers Ferry, WV
Elevation: 449 ft
Nearby Weather Stations

Elev 449 ft 39.34 °N, 77.81 °W | Updated 9 seconds ago

Clear
Clear
21.9 °F
Feels Like 22 °F
N
1.7
Wind Variable Wind from NNW
Gusts 6.8 mph

Today
High -- | Low -- °F
--% Chance of Precip.
Yesterday
High -- | Low -- °F
Precip. -- in
7:00 AM 7:31 PM
Waxing Gibbous, 69% visible
Pressure 30.32 in
Visibility 10.0 miles
Clouds Clear
Windchill 22 °F
Dew Point 17 °F
Humidity 82%
Rainfall 0.00 in
Snow Depth Not available.
UV 0 out of 12
Pollen 7.40 out of 12
Air Quality Not available.
Flu Activity Not available.
METAR KMRB 290653Z AUTO 00000KT 10SM CLR M04/M16 A3030 RMK AO2 SLP267 T10391161 TSNO

More Conditions Fewer Conditions

Pressure 30.32 in
Visibility 10.0 miles
Clouds Clear
Windchill 22 °F
Dew Point 17 °F
Humidity 82%
Rainfall 0.00 in
Snow Depth Not available.
UV 0 out of 12
Pollen 7.40 out of 12
Air Quality Not available.
Flu Activity Not available.
METAR KMRB 290653Z AUTO 00000KT 10SM CLR M04/M16 A3030 RMK AO2 SLP267 T10391161 TSNO

More Conditions Fewer Conditions

10-Day Weather Forecast

Almanac

Astronomy

Mar. 29, 2015 Rise Set
Actual Time
Civil Twilight
Nautical Twilight
Astronomical Twilight
Moon
Length of Visible Light
Length of Day
Tomorrow will be .
, % of the Moon is Illuminated

Today's Extremes

State Highs State Lows

Community

WunderPhotos

Upload Photos

1,809,187 photos uploaded!

WunderBlogs® & News

Nearby

Air Quality

  Air Quality AQ Index Pollutant
Not available.

Snow Depth

Station Depth Elevation

Earthquake Activity

City Distance Mag. Time & Date
Minimum magnitude displayed is 2.5.

Coastal Water Temperatures

Place Temperature

Stations

Nearby Weather Stations

Station Location Temp. Windchill Dew Point Humidity Wind Precip. Elev Updated Type